sensor_id;sensor_type;location;lat;lon;timestamp;pressure;altitude;pressure_sealevel;temperature;humidity
47785;BME280;35233;55.686;37.848;2024-03-02T00:00:08;101046.28;;;13.69;42.58
47785;BME280;35233;55.686;37.848;2024-03-02T00:02:46;101050.81;;;13.63;42.80
47785;BME280;35233;55.686;37.848;2024-03-02T00:05:13;101053.41;;;13.66;42.98
47785;BME280;35233;55.686;37.848;2024-03-02T00:07:43;101059.59;;;13.68;42.57
47785;BME280;35233;55.686;37.848;2024-03-02T00:10:10;101057.81;;;13.67;42.95
47785;BME280;35233;55.686;37.848;2024-03-02T00:12:40;101048.16;;;13.63;43.26
47785;BME280;35233;55.686;37.848;2024-03-02T00:17:55;101047.13;;;13.70;42.86
47785;BME280;35233;55.686;37.848;2024-03-02T00:20:22;101055.09;;;13.70;42.89
47785;BME280;35233;55.686;37.848;2024-03-02T00:22:51;101041.81;;;13.70;42.22
47785;BME280;35233;55.686;37.848;2024-03-02T00:25:18;101048.97;;;13.68;42.71
47785;BME280;35233;55.686;37.848;2024-03-02T00:27:47;101043.72;;;13.65;42.76
47785;BME280;35233;55.686;37.848;2024-03-02T00:30:52;101042.81;;;13.64;42.83
47785;BME280;35233;55.686;37.848;2024-03-02T00:33:20;101043.66;;;13.66;42.63
47785;BME280;35233;55.686;37.848;2024-03-02T00:35:47;101047.19;;;13.67;42.46
47785;BME280;35233;55.686;37.848;2024-03-02T00:38:14;101046.31;;;13.66;42.50
47785;BME280;35233;55.686;37.848;2024-03-02T00:40:44;101037.50;;;13.66;42.54
47785;BME280;35233;55.686;37.848;2024-03-02T00:46:02;101047.25;;;13.65;42.97
47785;BME280;35233;55.686;37.848;2024-03-02T00:48:29;101049.97;;;13.62;42.70
47785;BME280;35233;55.686;37.848;2024-03-02T00:50:57;101049.91;;;13.65;42.84
47785;BME280;35233;55.686;37.848;2024-03-02T00:53:26;101050.78;;;13.64;42.97
47785;BME280;35233;55.686;37.848;2024-03-02T00:55:52;101049.84;;;13.67;42.99
47785;BME280;35233;55.686;37.848;2024-03-02T00:58:18;101046.31;;;13.68;42.23
47785;BME280;35233;55.686;37.848;2024-03-02T01:00:44;101041.94;;;13.64;42.64
47785;BME280;35233;55.686;37.848;2024-03-02T01:03:09;101049.91;;;13.64;42.72
47785;BME280;35233;55.686;37.848;2024-03-02T01:05:36;101051.69;;;13.63;42.67
47785;BME280;35233;55.686;37.848;2024-03-02T01:08:02;101049.91;;;13.65;42.32
47785;BME280;35233;55.686;37.848;2024-03-02T01:10:28;101049.97;;;13.62;42.76
47785;BME280;35233;55.686;37.848;2024-03-02T01:12:53;101050.88;;;13.59;42.65
47785;BME280;35233;55.686;37.848;2024-03-02T01:15:19;101053.44;;;13.64;42.60
47785;BME280;35233;55.686;37.848;2024-03-02T01:17:45;101046.44;;;13.62;43.04
47785;BME280;35233;55.686;37.848;2024-03-02T01:20:11;101052.69;;;13.57;42.58
47785;BME280;35233;55.686;37.848;2024-03-02T01:22:36;101052.66;;;13.59;42.69
47785;BME280;35233;55.686;37.848;2024-03-02T01:25:03;101057.94;;;13.61;42.55
47785;BME280;35233;55.686;37.848;2024-03-02T01:27:29;101056.13;;;13.63;42.81
47785;BME280;35233;55.686;37.848;2024-03-02T01:29:54;101043.84;;;13.55;42.90
47785;BME280;35233;55.686;37.848;2024-03-02T01:32:20;101058.81;;;13.61;42.29
47785;BME280;35233;55.686;37.848;2024-03-02T01:34:46;101052.66;;;13.59;42.49
47785;BME280;35233;55.686;37.848;2024-03-02T01:37:11;101056.13;;;13.63;42.15
47785;BME280;35233;55.686;37.848;2024-03-02T01:39:37;101050.91;;;13.58;42.51
47785;BME280;35233;55.686;37.848;2024-03-02T01:42:03;101055.28;;;13.61;42.68
47785;BME280;35233;55.686;37.848;2024-03-02T01:44:29;101054.47;;;13.57;42.72
47785;BME280;35233;55.686;37.848;2024-03-02T01:46:54;101061.56;;;13.56;42.56
47785;BME280;35233;55.686;37.848;2024-03-02T01:49:20;101066.81;;;13.59;42.77
47785;BME280;35233;55.686;37.848;2024-03-02T01:51:45;101058.00;;;13.57;42.11
47785;BME280;35233;55.686;37.848;2024-03-02T01:54:11;101056.38;;;13.50;42.47
47785;BME280;35233;55.686;37.848;2024-03-02T01:56:37;101065.09;;;13.57;42.74
47785;BME280;35233;55.686;37.848;2024-03-02T01:59:03;101070.38;;;13.58;42.89
47785;BME280;35233;55.686;37.848;2024-03-02T02:01:28;101058.97;;;13.52;42.79
47785;BME280;35233;55.686;37.848;2024-03-02T02:03:54;101065.06;;;13.58;42.80
47785;BME280;35233;55.686;37.848;2024-03-02T02:06:20;101069.53;;;13.56;42.72
47785;BME280;35233;55.686;37.848;2024-03-02T02:08:46;101068.63;;;13.57;42.58
47785;BME280;35233;55.686;37.848;2024-03-02T02:11:15;101072.19;;;13.55;42.16
47785;BME280;35233;55.686;37.848;2024-03-02T02:13:41;101074.78;;;13.58;42.46
47785;BME280;35233;55.686;37.848;2024-03-02T02:16:09;101080.09;;;13.58;42.35
47785;BME280;35233;55.686;37.848;2024-03-02T02:18:35;101072.19;;;13.56;42.57
47785;BME280;35233;55.686;37.848;2024-03-02T02:21:03;101084.53;;;13.57;42.48
47785;BME280;35233;55.686;37.848;2024-03-02T02:23:29;101086.31;;;13.58;42.84
47785;BME280;35233;55.686;37.848;2024-03-02T02:25:54;101080.16;;;13.56;42.47
47785;BME280;35233;55.686;37.848;2024-03-02T02:28:20;101078.38;;;13.57;42.38
47785;BME280;35233;55.686;37.848;2024-03-02T02:30:46;101078.34;;;13.58;42.78
47785;BME280;35233;55.686;37.848;2024-03-02T02:33:11;101084.50;;;13.61;42.30
47785;BME280;35233;55.686;37.848;2024-03-02T02:35:37;101081.88;;;13.57;42.89
47785;BME280;35233;55.686;37.848;2024-03-02T02:38:03;101082.75;;;13.59;42.56
47785;BME280;35233;55.686;37.848;2024-03-02T02:40:29;101078.44;;;13.52;42.70
47785;BME280;35233;55.686;37.848;2024-03-02T02:42:57;101085.41;;;13.58;42.65
47785;BME280;35233;55.686;37.848;2024-03-02T02:45:24;101097.88;;;13.56;42.53
47785;BME280;35233;55.686;37.848;2024-03-02T02:47:50;101080.22;;;13.53;42.64
47785;BME280;35233;55.686;37.848;2024-03-02T02:50:16;101089.91;;;13.54;42.25
47785;BME280;35233;55.686;37.848;2024-03-02T02:52:42;101086.34;;;13.55;42.50
47785;BME280;35233;55.686;37.848;2024-03-02T02:55:13;101054.81;;;13.39;42.01
47785;BME280;35233;55.686;37.848;2024-03-02T02:57:40;101076.63;;;13.54;42.78
47785;BME280;35233;55.686;37.848;2024-03-02T03:00:16;101081.94;;;13.54;42.87
47785;BME280;35233;55.686;37.848;2024-03-02T03:02:45;101073.97;;;13.54;42.58
47785;BME280;35233;55.686;37.848;2024-03-02T03:05:13;101082.06;;;13.48;42.48
47785;BME280;35233;55.686;37.848;2024-03-02T03:07:39;101066.25;;;13.41;42.06
47785;BME280;35233;55.686;37.848;2024-03-02T03:10:06;101084.69;;;13.50;42.06
47785;BME280;35233;55.686;37.848;2024-03-02T03:12:32;101083.78;;;13.49;42.30
47785;BME280;35233;55.686;37.848;2024-03-02T03:14:58;101079.41;;;13.48;42.38
47785;BME280;35233;55.686;37.848;2024-03-02T03:17:24;101085.56;;;13.49;42.66
47785;BME280;35233;55.686;37.848;2024-03-02T03:19:50;101074.09;;;13.50;42.44
47785;BME280;35233;55.686;37.848;2024-03-02T03:22:16;101077.63;;;13.49;42.30
47785;BME280;35233;55.686;37.848;2024-03-02T03:24:42;101080.31;;;13.47;42.30
47785;BME280;35233;55.686;37.848;2024-03-02T03:27:07;101081.25;;;13.43;42.14
47785;BME280;35233;55.686;37.848;2024-03-02T03:29:33;101072.41;;;13.43;41.85
47785;BME280;35233;55.686;37.848;2024-03-02T03:31:58;101082.97;;;13.47;42.00
47785;BME280;35233;55.686;37.848;2024-03-02T03:34:24;101083.84;;;13.46;42.17
47785;BME280;35233;55.686;37.848;2024-03-02T03:36:49;101082.91;;;13.50;41.89
47785;BME280;35233;55.686;37.848;2024-03-02T03:39:15;101074.16;;;13.44;42.22
47785;BME280;35233;55.686;37.848;2024-03-02T03:41:41;101075.06;;;13.44;42.24
47785;BME280;35233;55.686;37.848;2024-03-02T03:44:06;101074.13;;;13.47;42.51
47785;BME280;35233;55.686;37.848;2024-03-02T03:46:32;101075.94;;;13.43;42.64
47785;BME280;35233;55.686;37.848;2024-03-02T03:48:57;101075.00;;;13.46;42.52
47785;BME280;35233;55.686;37.848;2024-03-02T03:51:23;101079.47;;;13.45;42.16
47785;BME280;35233;55.686;37.848;2024-03-02T03:53:49;101073.34;;;13.42;42.69
47785;BME280;35233;55.686;37.848;2024-03-02T03:56:15;101068.91;;;13.42;42.13
47785;BME280;35233;55.686;37.848;2024-03-02T03:58:40;101081.25;;;13.43;41.97
47785;BME280;35233;55.686;37.848;2024-03-02T04:01:06;101078.59;;;13.45;42.00
47785;BME280;35233;55.686;37.848;2024-03-02T04:03:31;101070.69;;;13.42;41.92
47785;BME280;35233;55.686;37.848;2024-03-02T04:05:57;101076.81;;;13.45;42.38
47785;BME280;35233;55.686;37.848;2024-03-02T04:08:23;101080.38;;;13.44;42.51
47785;BME280;35233;55.686;37.848;2024-03-02T04:10:48;101082.06;;;13.48;41.93
47785;BME280;35233;55.686;37.848;2024-03-02T04:13:14;101082.13;;;13.44;41.92
47785;BME280;35233;55.686;37.848;2024-03-02T04:15:39;101079.53;;;13.41;41.86
47785;BME280;35233;55.686;37.848;2024-03-02T04:18:06;101084.75;;;13.45;41.94
47785;BME280;35233;55.686;37.848;2024-03-02T04:20:32;101080.38;;;13.43;42.10
47785;BME280;35233;55.686;37.848;2024-03-02T04:22:57;101083.03;;;13.44;41.85
47785;BME280;35233;55.686;37.848;2024-03-02T04:25:23;101073.28;;;13.45;42.01
47785;BME280;35233;55.686;37.848;2024-03-02T04:27:48;101070.56;;;13.48;42.10
47785;BME280;35233;55.686;37.848;2024-03-02T04:30:14;101083.91;;;13.45;41.75
47785;BME280;35233;55.686;37.848;2024-03-02T04:32:40;101075.94;;;13.43;42.70
47785;BME280;35233;55.686;37.848;2024-03-02T04:35:06;101083.03;;;13.44;41.71
47785;BME280;35233;55.686;37.848;2024-03-02T04:37:34;101076.00;;;13.40;41.64
47785;BME280;35233;55.686;37.848;2024-03-02T04:40:00;101079.47;;;13.44;42.51
47785;BME280;35233;55.686;37.848;2024-03-02T04:42:25;101077.66;;;13.46;41.93
47785;BME280;35233;55.686;37.848;2024-03-02T04:44:51;101083.84;;;13.48;41.63
47785;BME280;35233;55.686;37.848;2024-03-02T04:47:16;101086.56;;;13.43;42.27
47785;BME280;35233;55.686;37.848;2024-03-02T04:49:42;101079.47;;;13.45;42.37
47785;BME280;35233;55.686;37.848;2024-03-02T04:52:09;101090.94;;;13.46;41.92
47785;BME280;35233;55.686;37.848;2024-03-02T04:54:34;101087.41;;;13.47;42.03
47785;BME280;35233;55.686;37.848;2024-03-02T04:57:20;101083.03;;;13.44;41.97
47785;BME280;35233;55.686;37.848;2024-03-02T04:59:45;101083.84;;;13.46;41.76
47785;BME280;35233;55.686;37.848;2024-03-02T05:02:11;101083.91;;;13.45;42.08
47785;BME280;35233;55.686;37.848;2024-03-02T05:04:39;101087.41;;;13.47;41.48
47785;BME280;35233;55.686;37.848;2024-03-02T05:07:05;101077.66;;;13.47;42.00
47785;BME280;35233;55.686;37.848;2024-03-02T05:09:31;101077.72;;;13.44;42.15
47785;BME280;35233;55.686;37.848;2024-03-02T05:11:56;101081.13;;;13.49;42.06
47785;BME280;35233;55.686;37.848;2024-03-02T05:14:40;101084.69;;;13.50;41.98
47785;BME280;35233;55.686;37.848;2024-03-02T05:17:06;101086.44;;;13.49;42.28
47785;BME280;35233;55.686;37.848;2024-03-02T05:19:32;101078.44;;;13.52;41.37
47785;BME280;35233;55.686;37.848;2024-03-02T05:21:57;101080.31;;;13.47;42.01
47785;BME280;35233;55.686;37.848;2024-03-02T05:24:23;101084.72;;;13.48;41.56
47785;BME280;35233;55.686;37.848;2024-03-02T05:26:49;101071.44;;;13.48;41.57
47785;BME280;35233;55.686;37.848;2024-03-02T05:29:14;101081.94;;;13.54;41.69
47785;BME280;35233;55.686;37.848;2024-03-02T05:31:40;101083.75;;;13.52;41.81
47785;BME280;35233;55.686;37.848;2024-03-02T05:34:06;101080.28;;;13.49;41.65
47785;BME280;35233;55.686;37.848;2024-03-02T05:36:31;101085.63;;;13.47;42.10
47785;BME280;35233;55.686;37.848;2024-03-02T05:38:57;101089.91;;;13.54;41.69
47785;BME280;35233;55.686;37.848;2024-03-02T05:41:23;101081.13;;;13.49;41.67
47785;BME280;35233;55.686;37.848;2024-03-02T05:43:48;101090.88;;;13.49;41.38
47785;BME280;35233;55.686;37.848;2024-03-02T05:46:14;101095.25;;;13.53;41.78
47785;BME280;35233;55.686;37.848;2024-03-02T05:48:40;101089.09;;;13.49;42.10
47785;BME280;35233;55.686;37.848;2024-03-02T05:51:06;101089.06;;;13.52;41.54
47785;BME280;35233;55.686;37.848;2024-03-02T05:53:32;101089.91;;;13.54;41.41
47785;BME280;35233;55.686;37.848;2024-03-02T05:55:57;101099.66;;;13.54;41.21
47785;BME280;35233;55.686;37.848;2024-03-02T05:58:23;101100.47;;;13.57;41.77
47785;BME280;35233;55.686;37.848;2024-03-02T06:01:15;101096.94;;;13.57;41.55
47785;BME280;35233;55.686;37.848;2024-03-02T06:03:40;101086.38;;;13.54;42.06
47785;BME280;35233;55.686;37.848;2024-03-02T06:06:06;101100.41;;;13.62;41.01
47785;BME280;35233;55.686;37.848;2024-03-02T06:08:31;101092.50;;;13.57;41.60
47785;BME280;35233;55.686;37.848;2024-03-02T06:10:57;101099.59;;;13.58;41.68
47785;BME280;35233;55.686;37.848;2024-03-02T06:13:23;101100.41;;;13.62;41.93
47785;BME280;35233;55.686;37.848;2024-03-02T06:15:50;101105.69;;;13.64;41.82
47785;BME280;35233;55.686;37.848;2024-03-02T06:18:16;101100.41;;;13.61;41.35
47785;BME280;35233;55.686;37.848;2024-03-02T06:20:42;101102.09;;;13.68;41.70
47785;BME280;35233;55.686;37.848;2024-03-02T06:23:08;101100.19;;;13.73;41.29
47785;BME280;35233;55.686;37.848;2024-03-02T06:25:33;101099.38;;;13.69;41.66
47785;BME280;35233;55.686;37.848;2024-03-02T06:27:59;101100.25;;;13.71;41.80
47785;BME280;35233;55.686;37.848;2024-03-02T06:30:24;101106.41;;;13.73;41.80
47785;BME280;35233;55.686;37.848;2024-03-02T06:32:50;101098.41;;;13.75;41.46
47785;BME280;35233;55.686;37.848;2024-03-02T06:35:15;101101.97;;;13.74;41.13
47785;BME280;35233;55.686;37.848;2024-03-02T06:37:41;101107.19;;;13.78;41.05
47785;BME280;35233;55.686;37.848;2024-03-02T06:40:07;101103.66;;;13.78;40.95
47785;BME280;35233;55.686;37.848;2024-03-02T06:42:34;101104.50;;;13.80;41.05
47785;BME280;35233;55.686;37.848;2024-03-02T06:45:00;101092.09;;;13.82;40.88
47785;BME280;35233;55.686;37.848;2024-03-02T06:47:25;101093.72;;;13.89;40.70
47785;BME280;35233;55.686;37.848;2024-03-02T06:49:51;101098.97;;;13.92;40.64
47785;BME280;35233;55.686;37.848;2024-03-02T06:52:17;101096.31;;;13.92;41.17
47785;BME280;35233;55.686;37.848;2024-03-02T06:54:42;101101.56;;;13.95;41.25
47785;BME280;35233;55.686;37.848;2024-03-02T06:57:08;101102.44;;;13.96;40.94
47785;BME280;35233;55.686;37.848;2024-03-02T06:59:33;101106.00;;;13.96;41.00
47785;BME280;35233;55.686;37.848;2024-03-02T07:01:59;101105.94;;;13.98;41.24
47785;BME280;35233;55.686;37.848;2024-03-02T07:04:25;101108.59;;;13.99;40.67
47785;BME280;35233;55.686;37.848;2024-03-02T07:06:50;101104.88;;;14.07;39.87
47785;BME280;35233;55.686;37.848;2024-03-02T07:09:16;101111.06;;;14.09;40.63
47785;BME280;35233;55.686;37.848;2024-03-02T07:11:42;101105.75;;;14.07;41.15
47785;BME280;35233;55.686;37.848;2024-03-02T07:14:08;101099.56;;;14.07;40.37
47785;BME280;35233;55.686;37.848;2024-03-02T07:16:34;101108.22;;;14.18;40.72
47785;BME280;35233;55.686;37.848;2024-03-02T07:19:03;101109.94;;;14.19;40.78
47785;BME280;35233;55.686;37.848;2024-03-02T07:21:29;101115.19;;;14.23;40.76
47785;BME280;35233;55.686;37.848;2024-03-02T07:23:54;101109.88;;;14.23;39.98
47785;BME280;35233;55.686;37.848;2024-03-02T07:26:20;101116.78;;;14.32;40.15
47785;BME280;35233;55.686;37.848;2024-03-02T07:28:46;101108.81;;;14.32;39.97
47785;BME280;35233;55.686;37.848;2024-03-02T07:31:13;101102.56;;;14.33;40.63
47785;BME280;35233;55.686;37.848;2024-03-02T07:33:38;101107.75;;;14.39;40.57
47785;BME280;35233;55.686;37.848;2024-03-02T07:36:04;101105.03;;;14.42;40.20
47785;BME280;35233;55.686;37.848;2024-03-02T07:38:30;101105.91;;;14.44;40.35
47785;BME280;35233;55.686;37.848;2024-03-02T07:40:57;101097.06;;;14.42;40.55
47785;BME280;35233;55.686;37.848;2024-03-02T07:43:23;101095.97;;;14.54;39.99
47785;BME280;35233;55.686;37.848;2024-03-02T07:45:48;101098.47;;;14.62;40.08
47785;BME280;35233;55.686;37.848;2024-03-02T07:48:14;101096.59;;;14.67;39.56
47785;BME280;35233;55.686;37.848;2024-03-02T07:50:40;101100.09;;;14.69;39.61
47785;BME280;35233;55.686;37.848;2024-03-02T07:53:07;101099.09;;;14.73;39.73
47785;BME280;35233;55.686;37.848;2024-03-02T07:55:33;101100.84;;;14.76;39.34
47785;BME280;35233;55.686;37.848;2024-03-02T07:58:00;101101.56;;;14.82;39.86
47785;BME280;35233;55.686;37.848;2024-03-02T08:00:26;101102.28;;;14.89;39.56
47785;BME280;35233;55.686;37.848;2024-03-02T08:02:53;101096.16;;;14.87;39.58
47785;BME280;35233;55.686;37.848;2024-03-02T08:05:19;101095.06;;;14.96;39.53
47785;BME280;35233;55.686;37.848;2024-03-02T08:07:46;101092.25;;;15.02;39.32
47785;BME280;35233;55.686;37.848;2024-03-02T08:10:12;101095.72;;;15.05;38.81
47785;BME280;35233;55.686;37.848;2024-03-02T08:12:38;101086.94;;;15.00;39.23
47785;BME280;35233;55.686;37.848;2024-03-02T08:15:05;101101.75;;;15.12;38.86
47785;BME280;35233;55.686;37.848;2024-03-02T08:17:30;101097.19;;;15.17;38.91
47785;BME280;35233;55.686;37.848;2024-03-02T08:19:56;101091.03;;;15.15;38.97
47785;BME280;35233;55.686;37.848;2024-03-02T08:22:23;101093.50;;;15.23;39.16
47785;BME280;35233;55.686;37.848;2024-03-02T08:24:51;101093.50;;;15.24;39.00
47785;BME280;35233;55.686;37.848;2024-03-02T08:27:17;101086.41;;;15.23;38.52
47785;BME280;35233;55.686;37.848;2024-03-02T08:29:43;101089.91;;;15.25;38.85
47785;BME280;35233;55.686;37.848;2024-03-02T08:32:08;101092.50;;;15.27;39.20
47785;BME280;35233;55.686;37.848;2024-03-02T08:34:34;101085.28;;;15.32;38.72
47785;BME280;35233;55.686;37.848;2024-03-02T08:37:04;101089.69;;;15.34;38.65
47785;BME280;35233;55.686;37.848;2024-03-02T08:39:30;101093.03;;;15.43;38.57
47785;BME280;35233;55.686;37.848;2024-03-02T08:41:56;101090.28;;;15.46;38.78
47785;BME280;35233;55.686;37.848;2024-03-02T08:44:21;101090.31;;;15.44;38.98
47785;BME280;35233;55.686;37.848;2024-03-02T08:46:47;101099.91;;;15.51;39.12
47785;BME280;35233;55.686;37.848;2024-03-02T08:49:13;101096.22;;;15.57;38.93
47785;BME280;35233;55.686;37.848;2024-03-02T08:51:39;101094.31;;;15.62;38.98
47785;BME280;35233;55.686;37.848;2024-03-02T08:54:04;101088.91;;;15.65;38.86
47785;BME280;35233;55.686;37.848;2024-03-02T08:56:49;101090.59;;;15.69;38.86
47785;BME280;35233;55.686;37.848;2024-03-02T08:59:15;101085.19;;;15.72;38.50
47785;BME280;35233;55.686;37.848;2024-03-02T09:01:41;101082.44;;;15.75;38.38
47785;BME280;35233;55.686;37.848;2024-03-02T09:04:07;101087.66;;;15.80;38.40
47785;BME280;35233;55.686;37.848;2024-03-02T09:06:36;101078.72;;;15.82;38.46
47785;BME280;35233;55.686;37.848;2024-03-02T09:09:01;101087.34;;;15.91;38.65
47785;BME280;35233;55.686;37.848;2024-03-02T09:11:27;101078.47;;;15.90;38.04
47785;BME280;35233;55.686;37.848;2024-03-02T09:13:53;101087.31;;;15.92;38.44
47785;BME280;35233;55.686;37.848;2024-03-02T09:16:21;101074.22;;;17.31;41.65
47785;BME280;35233;55.686;37.848;2024-03-02T09:18:46;101086.47;;;18.39;40.30
47785;BME280;35233;55.686;37.848;2024-03-02T09:21:12;101081.78;;;17.97;40.61
47785;BME280;35233;55.686;37.848;2024-03-02T09:23:38;101082.06;;;17.89;40.75
47785;BME280;35233;55.686;37.848;2024-03-02T09:26:05;101077.50;;;17.91;40.40
47785;BME280;35233;55.686;37.848;2024-03-02T09:28:31;101074.72;;;17.94;40.14
47785;BME280;35233;55.686;37.848;2024-03-02T09:30:57;101081.66;;;18.00;39.80
47785;BME280;35233;55.686;37.848;2024-03-02T09:33:22;101078.94;;;18.01;39.02
47785;BME280;35233;55.686;37.848;2024-03-02T09:35:49;101075.06;;;18.10;39.08
47785;BME280;35233;55.686;37.848;2024-03-02T09:38:14;101069.63;;;18.12;38.90
47785;BME280;35233;55.686;37.848;2024-03-02T09:40:41;101075.59;;;18.20;38.64
47785;BME280;35233;55.686;37.848;2024-03-02T09:43:07;101065.41;;;18.29;38.40
47785;BME280;35233;55.686;37.848;2024-03-02T09:45:33;101063.19;;;18.41;37.50
47785;BME280;35233;55.686;37.848;2024-03-02T09:47:59;101064.53;;;18.52;37.63
47785;BME280;35233;55.686;37.848;2024-03-02T09:50:25;101061.84;;;18.76;36.81
47785;BME280;35233;55.686;37.848;2024-03-02T09:52:55;101061.25;;;18.91;36.66
47785;BME280;35233;55.686;37.848;2024-03-02T09:55:21;101050.91;;;19.04;36.41
47785;BME280;35233;55.686;37.848;2024-03-02T09:57:47;101052.47;;;19.10;35.89
47785;BME280;35233;55.686;37.848;2024-03-02T10:00:16;101055.81;;;19.15;35.85
47785;BME280;35233;55.686;37.848;2024-03-02T10:02:42;101056.66;;;19.17;35.98
47785;BME280;35233;55.686;37.848;2024-03-02T10:05:10;101057.31;;;19.22;35.85
47785;BME280;35233;55.686;37.848;2024-03-02T10:07:37;101054.50;;;19.25;35.45
47785;BME280;35233;55.686;37.848;2024-03-02T10:10:14;101062.34;;;19.30;35.42
47785;BME280;35233;55.686;37.848;2024-03-02T10:12:40;101056.03;;;19.31;35.55
47785;BME280;35233;55.686;37.848;2024-03-02T10:15:06;101051.56;;;19.31;35.66
47785;BME280;35233;55.686;37.848;2024-03-02T10:17:32;101054.09;;;19.34;35.22
47785;BME280;35233;55.686;37.848;2024-03-02T10:19:58;101043.47;;;19.33;35.17
47785;BME280;35233;55.686;37.848;2024-03-02T10:22:24;101052.97;;;19.40;35.03
47785;BME280;35233;55.686;37.848;2024-03-02T10:24:50;101036.97;;;19.38;34.78
47785;BME280;35233;55.686;37.848;2024-03-02T10:27:23;101043.94;;;19.42;34.95
47785;BME280;35233;55.686;37.848;2024-03-02T10:29:49;101047.28;;;19.48;35.03
47785;BME280;35233;55.686;37.848;2024-03-02T10:32:16;101048.66;;;19.58;34.73
47785;BME280;35233;55.686;37.848;2024-03-02T10:34:43;101051.25;;;19.59;34.68
47785;BME280;35233;55.686;37.848;2024-03-02T10:37:12;101047.84;;;19.56;34.41
47785;BME280;35233;55.686;37.848;2024-03-02T10:39:39;101040.63;;;19.58;34.68
47785;BME280;35233;55.686;37.848;2024-03-02T10:42:08;101051.97;;;19.63;34.31
47785;BME280;35233;55.686;37.848;2024-03-02T10:44:34;101054.75;;;19.61;34.38
47785;BME280;35233;55.686;37.848;2024-03-02T10:47:03;101058.13;;;19.66;34.29
47785;BME280;35233;55.686;37.848;2024-03-02T10:49:30;101057.28;;;19.64;34.00
47785;BME280;35233;55.686;37.848;2024-03-02T10:51:58;101048.53;;;19.61;34.22
47785;BME280;35233;55.686;37.848;2024-03-02T10:54:24;101053.75;;;19.64;34.26
47785;BME280;35233;55.686;37.848;2024-03-02T10:56:53;101048.28;;;19.67;34.20
47785;BME280;35233;55.686;37.848;2024-03-02T10:59:33;101047.56;;;19.62;34.19
47785;BME280;35233;55.686;37.848;2024-03-02T11:02:00;101067.09;;;19.65;34.04
47785;BME280;35233;55.686;37.848;2024-03-02T11:04:28;101054.94;;;19.57;34.06
47785;BME280;35233;55.686;37.848;2024-03-02T11:07:07;101066.22;;;19.65;34.13
47785;BME280;35233;55.686;37.848;2024-03-02T11:09:37;101054.75;;;19.61;34.20
47785;BME280;35233;55.686;37.848;2024-03-02T11:14:49;101065.34;;;19.64;34.08
47785;BME280;35233;55.686;37.848;2024-03-02T11:17:17;101047.63;;;19.60;34.27
47785;BME280;35233;55.686;37.848;2024-03-02T11:19:44;101060.09;;;19.61;34.28
47785;BME280;35233;55.686;37.848;2024-03-02T11:22:12;101055.50;;;19.65;33.89
47785;BME280;35233;55.686;37.848;2024-03-02T11:24:37;101058.25;;;19.63;34.18
47785;BME280;35233;55.686;37.848;2024-03-02T11:27:07;101057.25;;;19.66;34.11
47785;BME280;35233;55.686;37.848;2024-03-02T11:32:18;101057.28;;;19.64;33.81
47785;BME280;35233;55.686;37.848;2024-03-02T11:34:48;101060.09;;;19.61;34.24
47785;BME280;35233;55.686;37.848;2024-03-02T11:37:15;101069.03;;;19.62;33.87
47785;BME280;35233;55.686;37.848;2024-03-02T11:39:43;101054.78;;;19.60;34.06
47785;BME280;35233;55.686;37.848;2024-03-02T11:42:11;101052.97;;;19.60;34.06
47785;BME280;35233;55.686;37.848;2024-03-02T11:44:37;101058.06;;;19.68;34.00
47785;BME280;35233;55.686;37.848;2024-03-02T11:47:08;101049.06;;;19.69;34.04
47785;BME280;35233;55.686;37.848;2024-03-02T11:49:39;101054.56;;;19.66;33.83
47785;BME280;35233;55.686;37.848;2024-03-02T11:52:06;101049.19;;;19.66;34.10
47785;BME280;35233;55.686;37.848;2024-03-02T11:54:39;101052.66;;;19.70;34.04
47785;BME280;35233;55.686;37.848;2024-03-02T11:57:08;101046.47;;;19.67;33.56
47785;BME280;35233;55.686;37.848;2024-03-02T11:59:34;101062.09;;;19.78;33.83
47785;BME280;35233;55.686;37.848;2024-03-02T12:02:00;101061.34;;;19.75;33.95
47785;BME280;35233;55.686;37.848;2024-03-02T12:04:26;101054.03;;;19.78;33.71
47785;BME280;35233;55.686;37.848;2024-03-02T12:06:55;101056.47;;;19.84;33.73
47785;BME280;35233;55.686;37.848;2024-03-02T12:09:22;101062.59;;;19.86;33.72
47785;BME280;35233;55.686;37.848;2024-03-02T12:11:47;101057.38;;;19.83;33.57
47785;BME280;35233;55.686;37.848;2024-03-02T12:14:13;101061.97;;;19.81;33.53
47785;BME280;35233;55.686;37.848;2024-03-02T12:16:44;101051.38;;;19.78;33.60
47785;BME280;35233;55.686;37.848;2024-03-02T12:19:10;101055.59;;;19.84;33.58
47785;BME280;35233;55.686;37.848;2024-03-02T12:21:35;101053.91;;;19.81;33.46
47785;BME280;35233;55.686;37.848;2024-03-02T12:24:02;101054.56;;;19.86;33.62
47785;BME280;35233;55.686;37.848;2024-03-02T12:26:28;101051.22;;;19.81;33.48
47785;BME280;35233;55.686;37.848;2024-03-02T12:28:54;101051.38;;;19.78;33.69
47785;BME280;35233;55.686;37.848;2024-03-02T12:31:20;101062.22;;;19.75;33.48
47785;BME280;35233;55.686;37.848;2024-03-02T12:33:46;101061.19;;;19.78;33.49
47785;BME280;35233;55.686;37.848;2024-03-02T12:36:13;101063.97;;;19.76;33.72
47785;BME280;35233;55.686;37.848;2024-03-02T12:38:43;101046.53;;;19.66;33.75
47785;BME280;35233;55.686;37.848;2024-03-02T12:41:09;101061.59;;;19.68;33.72
47785;BME280;35233;55.686;37.848;2024-03-02T12:43:35;101072.56;;;19.62;33.88
47785;BME280;35233;55.686;37.848;2024-03-02T12:46:01;101057.25;;;19.66;33.97
47785;BME280;35233;55.686;37.848;2024-03-02T12:48:26;101067.97;;;19.66;33.70